Tropical Cyclones
[Index]
Main Index Home Page Stock Weather Photos Extreme Storms Discussion Storm News and Storm Chasing Reports Tropical Cyclones / Hurricanes / Typhoons Weather Data and Links Wild Fires / Bushfires Weather Observation Techniques Weather Picture Catalogue Tornado Pictures and Reports Stock Video Footage and DVDs for sale
Season 1954-1955 Tropical Cyclone 195520 Track Map
Season 1954-1955 Summaries: [BoM-AU] [JTWC-AU] [JTWC-SIO] [JTWC-SPAC] [JTWC-SH]
<<- Previous TC | JTWC 1954-1955 Season | Next TC ->>

click for intensity scale information  Lat/long Grid: Show Hide

 Date Labels: Show Hide

Joint Typhoon Warning Centre Cyclone Data

Name: 195520
Number: 236 / 5520

05 Mar 1955 12:00 UTC to 15 Mar 1955 00:00 UTC

    date/time    lat    long     hPa   cat  kts
1955-03-05 12   17.4   175.6W                             
1955-03-05 18   17.4   176.2W                             
1955-03-06 00   17.4   176.8W                             
1955-03-06 06   17.4   177.5W                             
1955-03-06 12   17.5   178.2W                             
1955-03-06 18   17.7   179.0W                             
1955-03-07 00   17.9   179.8W                             
1955-03-07 06   18.2   179.6                              
1955-03-07 12   18.5   179.2                              
1955-03-07 18   18.8   178.8                              
1955-03-08 00   19.2   178.7                              
1955-03-08 06   21.0   179.4                              
1955-03-08 12   23.5   179.4W                             
1955-03-08 18   25.3   178.1W                             
1955-03-09 00   27.0   176.8W                             
1955-03-09 06   28.5   175.8W                             
1955-03-09 12   29.5   176.0W                             
1955-03-09 18   30.0   177.4W                             
1955-03-10 00   30.0   178.9W                             
1955-03-10 06   29.8   179.8                              
1955-03-10 12   29.5   178.5                              
1955-03-10 18   29.3   177.1                              
1955-03-11 00   29.5   175.7                              
1955-03-11 06   30.2   174.5                              
1955-03-11 12   31.0   173.6                              
1955-03-11 18   31.8   173.0                              
1955-03-12 00   32.6   172.3                              
1955-03-12 06   33.3   171.3                              
1955-03-12 12   34.0   170.2                              
1955-03-12 18   34.8   169.2                              
1955-03-13 00   35.7   168.4                              
1955-03-13 06   36.4   168.1                              
1955-03-13 12   37.0   168.2                              
1955-03-13 18   37.5   168.2                              
1955-03-14 00   38.0   168.9                              
1955-03-14 06   39.4   170.7                              
1955-03-14 12   41.0   173.0                              
1955-03-14 18   42.1   175.3                              
1955-03-15 00   43.0   177.6                              
Winds are 1-min average.

Tropical cyclone tracks developed by Michael Bath using data from the Joint Typhoon Warning Centre Best Tracks and Google Maps.


[Australian Severe Weather index] [Copyright Notice] [Email Contacts] [Search This Site] [Privacy Policy]
Document: tropical_cyclone_195520.htm Updated: 18 September 2016